TimeAKST,TemperatureF,Dew PointF,Humidity,Sea Level PressureIn,VisibilityMPH,Wind Direction,Wind SpeedMPH,Gust SpeedMPH,PrecipitationIn,Events,Conditions,WindDirDegrees,DateUTC
12:58 AM,-18.9,-23.1,81,30.22,10.0,Calm,Calm,-,N/A,,Clear,0,2012-11-27 09:58:00
1:58 AM,-18.0,-23.1,78,30.22,10.0,Calm,Calm,-,N/A,,Clear,0,2012-11-27 10:58:00
2:58 AM,-18.0,-24.0,74,30.22,10.0,Calm,Calm,-,N/A,,Clear,0,2012-11-27 11:58:00
3:58 AM,-20.0,-26.0,74,30.23,10.0,Calm,Calm,-,N/A,,Clear,0,2012-11-27 12:58:00
4:58 AM,-20.9,-26.0,77,30.23,10.0,Calm,Calm,-,N/A,,Clear,0,2012-11-27 13:58:00
5:58 AM,-20.0,-26.0,74,30.23,10.0,Calm,Calm,-,N/A,,Clear,0,2012-11-27 14:58:00
6:58 AM,-22.0,-27.9,74,30.25,9.0,Calm,Calm,-,N/A,,Clear,0,2012-11-27 15:58:00
7:58 AM,-20.9,-27.0,73,30.26,10.0,Calm,Calm,-,N/A,,Clear,0,2012-11-27 16:58:00
8:58 AM,-20.9,-27.0,73,30.27,10.0,Calm,Calm,-,N/A,,Clear,0,2012-11-27 17:58:00
9:58 AM,-23.1,-29.0,74,30.29,10.0,Calm,Calm,-,N/A,,Clear,0,2012-11-27 18:58:00
10:58 AM,-20.9,-27.0,73,30.30,10.0,North,3.5,-,N/A,,Clear,350,2012-11-27 19:58:00
11:58 AM,-16.1,-20.9,79,30.32,10.0,Calm,Calm,-,N/A,,Clear,0,2012-11-27 20:58:00
12:58 PM,-11.0,-17.0,75,30.34,10.0,Calm,Calm,-,N/A,,Clear,0,2012-11-27 21:58:00
1:58 PM,-9.0,-16.1,71,30.35,10.0,Calm,Calm,-,N/A,,Clear,0,2012-11-27 22:58:00
2:58 PM,-11.0,-17.0,75,30.35,10.0,Calm,Calm,-,N/A,,Clear,0,2012-11-27 23:58:00
3:58 PM,-14.1,-18.9,79,30.36,10.0,Calm,Calm,-,N/A,,Clear,0,2012-11-28 00:58:00
4:58 PM,-15.0,-20.0,78,30.36,10.0,Calm,Calm,-,N/A,,Clear,0,2012-11-28 01:58:00
5:58 PM,-15.0,-20.0,78,30.38,10.0,Calm,Calm,-,N/A,,Clear,0,2012-11-28 02:58:00
6:58 PM,-16.1,-20.9,79,30.40,10.0,Calm,Calm,-,N/A,,Clear,0,2012-11-28 03:58:00
7:58 PM,-15.0,-20.0,78,30.40,10.0,Calm,Calm,-,N/A,,Clear,0,2012-11-28 04:58:00
8:58 PM,-17.0,-22.0,78,30.40,10.0,Calm,Calm,-,N/A,,Clear,0,2012-11-28 05:58:00
9:58 PM,-18.0,-23.1,78,30.42,10.0,WNW,4.6,-,N/A,,Clear,290,2012-11-28 06:58:00
10:58 PM,-18.0,-23.1,78,30.42,10.0,Calm,Calm,-,N/A,,Clear,0,2012-11-28 07:58:00
11:58 PM,-18.9,-24.0,78,30.43,10.0,Calm,Calm,-,N/A,,Clear,0,2012-11-28 08:58:00